Impacts TAF Board
For situational awareness. Not to be used for flight planning purposes.
IDs:

EDDK - Koln-Bonn Arpt, NT, DE

Issued at 1700 UTC 21 May 2022
Updated at 2147 UTC 21 May 2022
Potential Impact None Slight Moderate High
Time2120Z 21/22Z 21/23Z 22/00Z 22/01Z 22/02Z 22/03Z 22/04Z 22/05Z 22/06Z 22/07Z 22/08Z 22/09Z 22/10Z>>
Type OBS PRVL PRVL PRVL PRVL PRVL PRVL PRVL PRVL PRVL PRVL PRVL PRVL PRVL
VIS >6 >6 >6 >6 >6 >6 >6 >6 >6 >6 >6 >6 >6 >6
CIG -- -- -- -- -- -- -- -- -- -- -- -- -- --
Cover CAVOK NSC NSC NSC NSC NSC NSC NSC NSC NSC NSC NSC NSC NSC
FltCat VFR VFR VFR VFR VFR VFR VFR VFR VFR VFR VFR VFR VFR VFR
WX -- NSW NSW NSW NSW NSW NSW NSW NSW NSW NSW NSW NSW NSW
WDir VRB VRB VRB VRB VRB VRB VRB VRB VRB VRB VRB VRB 330 330
WSpd 1 3 3 3 3 3 3 3 3 3 3 3 5 5
WGst -- -- -- -- -- -- -- -- -- -- -- -- -- --
WSHgt -- -- -- -- -- -- -- -- -- -- -- -- -- --
WSDir -- -- -- -- -- -- -- -- -- -- -- -- -- --
WSSpd -- -- -- -- -- -- -- -- -- -- -- -- -- --
Raw TAF
TAF EDDK 211700Z 2118/2224 31007KT CAVOK
  BECMG 2118/2121 VRB03KT
  BECMG 2209/2212 33005KT
  BECMG 2214/2217 05006KT
  BECMG 2219/2222 11005KT


Raw METAR
EDDK 212120Z AUTO VRB01KT CAVOK 13/09 Q1020 NOSIG
EDDK 212050Z AUTO VRB01KT CAVOK 13/09 Q1020 NOSIG
EDDK 212020Z AUTO VRB01KT CAVOK 14/09 Q1020 NOSIG
EDDK 211950Z AUTO 07002KT CAVOK 14/10 Q1020 NOSIG
EDDK 211920Z AUTO 05002KT CAVOK 15/10 Q1020 NOSIG
EDDK 211850Z AUTO 03003KT CAVOK 17/09 Q1020 NOSIG

METAR Board
For situational awareness. Not to be used for flight planning purposes.